Brown Mountain Beach, North Carolina
Current Conditions -  °F | °C
As of 5:35 PM on Monday 24 Nov 2014 (Local Time) from KMRN Reporting Station
Clear Clear  
Wind Chill: 65°   Ceiling: Unl
Heat Index: 65°   Visibility: 10mi
Dew Point: 53°   Wind: 3mph
Humidity: 66%   Direction: 180°S
Pressure: 29.82"   Gusts: NA
Location:  35.9726°N, 81.5331°W
Report Text: KMRN 242235Z AUTO 18003KT 10SM CLR 18/12 A2982 RMK AO2 T01830118
Loading
Personal Weather Stations






























Interactive Weather Map New forecast layout! Learn more

10-Day Weather Forecast

Advertisements
Track Severe Weather on mobile